DW4338 Bergen NO current weather conditions

sailwx.info

Wind from 360

Air temperature 12.8° C
Dewpoint 10.0° C

Last reported at 2017-Aug-23 19:08 UTC.
Time now 2017-Aug-23 19:36 UTC

Location: N 60°31' E 004°54'.
View on Google Maps.

See reports from other nearby stations

  
Tides and Currents Weather Stations Pressure Air Temp Water Temp Dewpoint Dewpoint Depression Visibility Wind Speed Wind Dir Waves Ship Positions
date/time (UTC)wind fromknots sea level pressurealtimeterstation pressurevisibilityair tempwater tempwave heightnotes
2017-Aug-23 19:08 360 12.8
2017-Aug-23 18:53 321 13.3
2017-Aug-23 18:38 320 13.3
2017-Aug-23 18:23 320 13.3
2017-Aug-23 18:08 320 13.3
2017-Aug-23 17:53 320 13.9
2017-Aug-23 17:38 320 13.9
2017-Aug-23 17:23 320 13.9
2017-Aug-23 17:08 320 13.9
2017-Aug-23 16:53 319 13.9
2017-Aug-23 16:38 319 3 gusting 11 14.4
2017-Aug-23 16:23 317 15.0
2017-Aug-23 16:08 303 8 gusting 12 15.6
2017-Aug-23 15:53 284 1 gusting 10 15.6
2017-Aug-23 15:38 241 5 gusting 15 15.6
2017-Aug-23 15:23 321 6 gusting 15 15.6
2017-Aug-23 15:08 311 2 gusting 13 15.0
2017-Aug-23 14:53 275 2 gusting 19 15.0
2017-Aug-23 14:38 301 5 gusting 19 15.0
2017-Aug-23 14:23 285 7 gusting 16 15.0
2017-Aug-23 14:08 266 7 gusting 19 14.4
2017-Aug-23 13:53 315 6 gusting 19 14.4
2017-Aug-23 13:38 303 11 gusting 19 14.4
2017-Aug-23 13:23 302 11 gusting 25 14.4
2017-Aug-23 13:08 276 0 gusting 19 15.0
2017-Aug-23 12:53 327 2 gusting 21 15.0
2017-Aug-23 12:38 296 15.0
2017-Aug-23 12:23 285 7 gusting 16 15.0
2017-Aug-23 12:08 286 4 gusting 11 14.4
2017-Aug-23 11:53 306 10 gusting 19 14.4
2017-Aug-23 11:38 251 2 gusting 15 14.4
2017-Aug-23 11:23 259 6 gusting 17 14.4
2017-Aug-23 11:08 277 3 gusting 17 15.0
2017-Aug-23 10:53 264 14.4
2017-Aug-23 10:38 252 3 gusting 16 13.9
2017-Aug-23 10:23 259 6 gusting 19 13.3
2017-Aug-23 10:07 290 3 gusting 13 12.8
2017-Aug-23 09:52 268 9 gusting 16 12.8
2017-Aug-23 09:37 254 7 gusting 17 12.8
2017-Aug-23 09:23 274 5 gusting 13 12.8
2017-Aug-23 09:08 295 1 gusting 12 12.8
2017-Aug-23 08:53 301 3 gusting 13 12.8
2017-Aug-23 08:37 300 1 gusting 16 12.8
2017-Aug-23 08:22 285 1 gusting 13 12.2
2017-Aug-23 08:07 309 2 gusting 12 12.2
2017-Aug-23 07:52 312 5 gusting 17 12.2
2017-Aug-23 07:37 304 4 gusting 13 12.2
2017-Aug-23 07:22 157 12.2
2017-Aug-23 07:07 157 12.2
2017-Aug-23 06:52 153 12.2
2017-Aug-23 06:37 153 7 gusting 16 11.7
2017-Aug-23 06:22 126 12.2
2017-Aug-23 06:07 127 6 gusting 15 11.7
2017-Aug-23 05:53 051 11.7
2017-Aug-23 05:37 051 11.1
2017-Aug-23 05:22 051 10.6
2017-Aug-23 05:07 051 10.6
2017-Aug-23 04:52 018 10.6
2017-Aug-23 04:37 017 10.6
2017-Aug-23 04:22 017 10.6
2017-Aug-23 04:07 017 10.6
2017-Aug-23 03:52 017 10.6
2017-Aug-23 03:37 017 10.6
2017-Aug-23 03:22 012 10.6
2017-Aug-23 03:07 009 10.6
2017-Aug-23 02:52 009 10.6
2017-Aug-23 02:37 009 10.6
2017-Aug-23 02:22 009 10.6
2017-Aug-23 02:07 009 10.6
2017-Aug-23 01:52 009 10.6
2017-Aug-23 01:37 009 10.6
2017-Aug-23 01:22 009 11.1
2017-Aug-23 01:07 009 11.1
2017-Aug-23 00:52 009 11.1
2017-Aug-23 00:37 009 11.1
2017-Aug-23 00:22 009 11.7
2017-Aug-23 00:07 009 11.7
2017-Aug-22 23:52 009 11.7
2017-Aug-22 23:37 009 11.7
2017-Aug-22 23:22 009 11.7
2017-Aug-22 23:07 009 11.7
2017-Aug-22 22:52 009 11.7
2017-Aug-22 22:37 009 11.7
2017-Aug-22 22:21 009 11.7
2017-Aug-22 22:06 009 11.7
2017-Aug-22 21:51 009 11.7
2017-Aug-22 21:36 009 11.7
2017-Aug-22 21:21 009 11.7
2017-Aug-22 21:06 009 11.1
2017-Aug-22 20:52 009 11.1
2017-Aug-22 20:37 009 11.7
2017-Aug-22 20:21 009 11.7
2017-Aug-22 20:06 009 12.2
2017-Aug-22 19:51 009 12.2
2017-Aug-22 19:36 009 12.8
2017-Aug-22 19:21 009 12.8
2017-Aug-22 19:06 009 13.3
2017-Aug-22 18:51 009 1 gusting 11 13.9
2017-Aug-22 18:36 011 2 gusting 17 13.9
2017-Aug-22 18:21 360 8 gusting 21 14.4
2017-Aug-22 18:06 355 6 gusting 17 15.0
2017-Aug-22 17:51 348 6 gusting 20 15.0
2017-Aug-22 17:36 360 10 gusting 26 15.0
2017-Aug-22 17:21 360 8 gusting 25 15.6
2017-Aug-22 17:06 350 9 gusting 24 15.6
2017-Aug-22 16:51 330 16 gusting 28 15.6
2017-Aug-22 16:36 324 8 gusting 27 15.6
2017-Aug-22 16:22 292 19 gusting 37 15.6
2017-Aug-22 16:06 315 19 gusting 33 16.1
2017-Aug-22 15:51 321 15 gusting 26 17.8
2017-Aug-22 15:37 344 2 gusting 11 17.8
2017-Aug-22 15:22 350 6 gusting 13 17.2
2017-Aug-22 15:06 340 6 gusting 25 16.7
2017-Aug-22 14:51 340 9 gusting 25 16.1
2017-Aug-22 14:06 309 28 gusting 34 15.6
2017-Aug-22 13:51 309 16 gusting 35 15.6
2017-Aug-22 13:36 331 25 gusting 34 15.6
2017-Aug-22 13:21 313 21 gusting 33 15.6
2017-Aug-22 13:06 340 12 gusting 34 15.6
2017-Aug-22 12:51 308 20 gusting 34 15.0
2017-Aug-22 12:36 309 26 gusting 39 15.6
2017-Aug-22 12:21 308 20 gusting 34 15.6
2017-Aug-22 12:06 360 10 gusting 25 16.7
2017-Aug-22 11:51 346 8 gusting 19 16.1
2017-Aug-22 11:36 340 3 gusting 13 16.1
2017-Aug-22 11:21 355 16.1
2017-Aug-22 11:06 067 5 gusting 15 15.6
2017-Aug-22 10:51 320 10 gusting 22 15.0
2017-Aug-22 10:36 314 15 gusting 23 15.6
2017-Aug-22 10:20 021 5 gusting 18 15.0
2017-Aug-22 10:06 329 2 gusting 16 15.0
2017-Aug-22 09:50 336 15.0
2017-Aug-22 09:36 336 14.4
2017-Aug-22 09:20 120 15.0
2017-Aug-22 09:06 119 15.0
2017-Aug-22 08:50 119 15.0
2017-Aug-22 08:35 118 14.4
2017-Aug-22 08:20 119 0 gusting 8 14.4
2017-Aug-22 08:05 119 13.9
2017-Aug-22 07:50 117 2 gusting 8 13.3
2017-Aug-22 07:35 116 12.8
2017-Aug-22 07:20 105 7 gusting 13 12.8
2017-Aug-22 07:05 074 7 gusting 11 12.8
2017-Aug-22 06:50 054 12.8
2017-Aug-22 06:35 053 1 gusting 10 12.2
2017-Aug-22 06:20 015 12.2
2017-Aug-22 06:05 013 2 gusting 8 11.7
2017-Aug-22 05:50 355 11.7
2017-Aug-22 05:35 355 11.1
2017-Aug-22 05:20 355 11.1
2017-Aug-22 05:05 355 11.1
2017-Aug-22 04:50 355 11.1
2017-Aug-22 04:35 355 11.1
2017-Aug-22 04:20 355 11.1
2017-Aug-22 04:05 355 11.1
2017-Aug-22 03:50 355 1 gusting 8 11.1
2017-Aug-22 03:37 355 8 gusting 18 11.1
2017-Aug-22 03:27 005 2 gusting 12 11.1
2017-Aug-22 03:05 005 11.7
2017-Aug-22 02:50 005 11.7
2017-Aug-22 02:35 005 11.7
2017-Aug-22 02:20 005 11.7
2017-Aug-21 23:50 005 3 gusting 23 11.7
2017-Aug-21 23:35 009 1 gusting 20 11.7
2017-Aug-21 23:20 355 6 gusting 18 11.7
2017-Aug-21 23:04 343 6 gusting 19 11.7
2017-Aug-21 22:50 355 2 gusting 18 11.7
2017-Aug-21 22:35 355 6 gusting 19 11.7
2017-Aug-21 22:20 344 10 gusting 26 12.2
2017-Aug-21 22:05 005 7 gusting 21 12.2
2017-Aug-21 21:49 355 14 gusting 26 11.7
2017-Aug-21 21:34 344 13 gusting 30 11.7
2017-Aug-21 21:19 347 13 gusting 25 11.7
2017-Aug-21 21:04 350 8 gusting 27 12.2
2017-Aug-21 20:50 039 9 gusting 26 11.7
2017-Aug-21 20:34 355 9 gusting 26 11.7
2017-Aug-21 20:19 019 12 gusting 25 11.7
2017-Aug-21 20:04 351 11 gusting 19 11.7
2017-Aug-21 19:49 360 11 gusting 28 12.2
2017-Aug-21 19:34 355 7 gusting 23 12.2
2017-Aug-21 19:19 355 9 gusting 24 12.2
2017-Aug-21 19:04 355 10 gusting 26 12.8